Time;durP1;ratioP1;P1;durP2;ratioP2;P2;SDS_P1;SDS_P2;PMS_P1;PMS_P2;Temp;Humidity;BMP_temperature;BMP_pressure;BME280_temperature;BME280_humidity;BME280_pressure;Samples;Min_cycle;Max_cycle;Signal;HPM_P1;HPM_P2
2021/04/26 00:00:14;;;;;;;3.23;2.60;;;;;;;;;;5050801;28;20237;-83
2021/04/26 00:02:43;;;;;;;3.90;2.83;;;;;;;;;;5056201;28;20319;-85
2021/04/26 00:05:13;;;;;;;4.00;2.60;;;;;;;;;;5053257;28;20564;-81
2021/04/26 00:07:41;;;;;;;3.57;2.70;;;;;;;;;;5101647;28;20695;-82
2021/04/26 00:10:10;;;;;;;4.17;2.40;;;;;;;;;;5048887;28;20241;-85
2021/04/26 00:12:38;;;;;;;4.13;2.67;;;;;;;;;;5051896;28;20219;-85
2021/04/26 00:15:16;;;;;;;3.60;2.50;;;;;;;;;;5073557;28;20214;-82
2021/04/26 00:17:45;;;;;;;5.90;2.60;;;;;;;;;;5053508;28;20233;-82
2021/04/26 00:20:14;;;;;;;6.57;2.83;;;;;;;;;;5086370;28;20522;-83
2021/04/26 00:22:41;;;;;;;4.23;3.23;;;;;;;;;;5051874;28;20215;-84
2021/04/26 00:25:10;;;;;;;4.27;2.87;;;;;;;;;;5051442;28;20204;-85
2021/04/26 00:27:38;;;;;;;4.80;2.90;;;;;;;;;;5088393;28;20204;-82
2021/04/26 00:30:12;;;;;;;5.03;2.80;;;;;;;;;;5093657;28;20227;-80
2021/04/26 00:32:40;;;;;;;5.17;2.37;;;;;;;;;;5073303;28;20214;-82
2021/04/26 00:35:10;;;;;;;4.87;2.90;;;;;;;;;;5042038;28;23181;-81
2021/04/26 00:37:38;;;;;;;2.97;2.50;;;;;;;;;;5085660;28;20223;-81
2021/04/26 00:40:07;;;;;;;4.97;3.03;;;;;;;;;;5060845;28;20220;-86
2021/04/26 00:42:35;;;;;;;3.30;2.57;;;;;;;;;;5074937;28;20206;-83
2021/04/26 00:45:08;;;;;;;5.97;3.10;;;;;;;;;;5038794;28;20215;-82
2021/04/26 00:47:36;;;;;;;3.37;2.70;;;;;;;;;;5056681;28;20661;-85
2021/04/26 00:50:04;;;;;;;4.40;2.57;;;;;;;;;;5087920;28;20228;-82
2021/04/26 00:52:33;;;;;;;5.70;3.13;;;;;;;;;;5092571;28;20211;-82
2021/04/26 00:55:01;;;;;;;4.80;2.87;;;;;;;;;;5053129;28;20688;-82
2021/04/26 00:57:28;;;;;;;4.10;2.27;;;;;;;;;;5065268;28;20204;-82
2021/04/26 00:59:56;;;;;;;4.40;2.93;;;;;;;;;;5092185;28;20230;-85
2021/04/26 01:02:24;;;;;;;2.53;2.33;;;;;;;;;;5051828;28;20207;-83
2021/04/26 01:04:52;;;;;;;5.83;2.73;;;;;;;;;;5050874;28;20854;-82
2021/04/26 01:07:21;;;;;;;4.77;2.70;;;;;;;;;;5051399;28;20237;-84
2021/04/26 01:09:49;;;;;;;6.17;2.60;;;;;;;;;;5065594;28;20226;-83
2021/04/26 01:12:23;;;;;;;3.50;2.77;;;;;;;;;;5084345;28;20204;-83
2021/04/26 01:14:57;;;;;;;4.60;2.87;;;;;;;;;;5072791;28;20374;-84
2021/04/26 01:17:29;;;;;;;3.47;2.90;;;;;;;;;;5051648;28;20210;-85
2021/04/26 01:20:27;;;;;;;5.47;2.73;;;;;;;;;;5064808;28;20223;-84
2021/04/26 01:23:35;;;;;;;4.97;2.30;;;;;;;;;;5043055;28;20206;-82
2021/04/26 01:26:03;;;;;;;3.50;2.70;;;;;;;;;;5059399;28;20206;-85
2021/04/26 01:28:36;;;;;;;4.53;2.80;;;;;;;;;;5075578;28;20205;-84
2021/04/26 01:31:10;;;;;;;4.77;2.73;;;;;;;;;;5046801;28;20226;-83
2021/04/26 01:33:50;;;;;;;5.43;2.50;;;;;;;;;;5056408;28;20207;-82
2021/04/26 01:36:22;;;;;;;4.50;2.40;;;;;;;;;;5044991;28;20203;-85
2021/04/26 01:38:54;;;;;;;4.83;2.50;;;;;;;;;;5050551;28;20684;-85
2021/04/26 01:41:23;;;;;;;3.23;2.70;;;;;;;;;;5053492;28;20206;-84
2021/04/26 01:43:54;;;;;;;5.30;2.63;;;;;;;;;;5050129;28;20204;-86
2021/04/26 01:46:23;;;;;;;3.17;2.57;;;;;;;;;;5061528;28;20767;-83
2021/04/26 01:48:53;;;;;;;4.07;2.60;;;;;;;;;;5060512;28;20203;-82
2021/04/26 01:51:22;;;;;;;2.67;2.30;;;;;;;;;;5042357;28;20208;-83
2021/04/26 01:53:50;;;;;;;4.83;2.70;;;;;;;;;;5050373;28;23061;-80
2021/04/26 01:56:19;;;;;;;2.57;2.33;;;;;;;;;;5055700;28;20195;-82
2021/04/26 01:58:51;;;;;;;6.50;2.70;;;;;;;;;;5040920;28;20684;-82
2021/04/26 02:01:22;;;;;;;3.97;2.60;;;;;;;;;;5085763;28;20214;-83
2021/04/26 02:03:54;;;;;;;5.00;2.90;;;;;;;;;;5046130;28;20221;-82
2021/04/26 02:06:49;;;;;;;4.77;2.70;;;;;;;;;;5056933;28;20230;-82
2021/04/26 02:09:23;;;;;;;4.37;2.63;;;;;;;;;;5052772;28;20235;-81
2021/04/26 02:12:00;;;;;;;3.87;2.80;;;;;;;;;;5056892;28;20228;-82
2021/04/26 02:14:40;;;;;;;5.23;2.90;;;;;;;;;;5066753;28;20211;-82
2021/04/26 02:17:09;;;;;;;3.00;2.50;;;;;;;;;;5059276;28;20226;-82
2021/04/26 02:19:38;;;;;;;4.73;2.90;;;;;;;;;;5057343;28;20732;-83
2021/04/26 02:22:06;;;;;;;3.83;2.40;;;;;;;;;;5070915;28;20302;-83
2021/04/26 02:24:46;;;;;;;4.40;2.60;;;;;;;;;;5060614;28;20215;-84
2021/04/26 02:27:15;;;;;;;5.87;2.93;;;;;;;;;;5050403;28;20203;-81
2021/04/26 02:29:43;;;;;;;3.33;2.53;;;;;;;;;;5059594;28;20231;-82
2021/04/26 02:32:14;;;;;;;4.67;3.03;;;;;;;;;;5053541;28;20211;-81
2021/04/26 02:34:52;;;;;;;3.70;2.73;;;;;;;;;;5075047;28;20210;-83
2021/04/26 02:37:25;;;;;;;3.33;2.40;;;;;;;;;;5051556;28;20214;-80
2021/04/26 02:39:56;;;;;;;3.53;2.70;;;;;;;;;;5051669;28;20236;-80
2021/04/26 02:42:24;;;;;;;3.33;2.70;;;;;;;;;;5076575;28;20202;-81
2021/04/26 02:44:52;;;;;;;6.13;3.00;;;;;;;;;;5075624;28;20209;-80
2021/04/26 02:47:21;;;;;;;5.20;2.83;;;;;;;;;;5059512;28;20689;-83
2021/04/26 02:50:05;;;;;;;7.70;2.90;;;;;;;;;;5045659;28;20216;-81
2021/04/26 02:52:39;;;;;;;9.80;2.70;;;;;;;;;;5054294;28;20218;-81
2021/04/26 02:55:08;;;;;;;6.10;3.20;;;;;;;;;;5072868;28;20573;-81
2021/04/26 02:57:39;;;;;;;5.33;2.73;;;;;;;;;;5050152;28;20214;-81
2021/04/26 03:00:08;;;;;;;3.87;2.80;;;;;;;;;;5057364;28;20247;-80
2021/04/26 03:02:42;;;;;;;3.80;2.77;;;;;;;;;;5050104;28;20207;-80
2021/04/26 03:05:16;;;;;;;4.37;3.30;;;;;;;;;;5059896;28;20206;-82
2021/04/26 03:07:47;;;;;;;3.80;2.77;;;;;;;;;;5068776;28;20216;-80
2021/04/26 03:10:18;;;;;;;3.57;3.17;;;;;;;;;;5100976;28;20215;-80
2021/04/26 03:12:48;;;;;;;4.90;3.40;;;;;;;;;;5082730;28;20672;-80
2021/04/26 03:15:18;;;;;;;5.07;3.53;;;;;;;;;;5067538;28;20203;-83
2021/04/26 03:17:47;;;;;;;4.03;3.13;;;;;;;;;;5090315;28;20216;-80
2021/04/26 03:20:17;;;;;;;6.40;3.10;;;;;;;;;;5057148;28;20422;-84
2021/04/26 03:22:57;;;;;;;4.33;3.23;;;;;;;;;;5096993;28;20211;-81
2021/04/26 03:25:25;;;;;;;5.70;2.93;;;;;;;;;;5071314;28;20200;-80
2021/04/26 03:27:55;;;;;;;5.73;3.50;;;;;;;;;;5070308;28;20217;-85
2021/04/26 03:30:27;;;;;;;4.33;3.20;;;;;;;;;;5067178;28;20233;-81
2021/04/26 03:33:03;;;;;;;5.37;3.03;;;;;;;;;;5073549;28;20212;-85
2021/04/26 03:35:31;;;;;;;4.67;3.10;;;;;;;;;;5071296;28;20196;-80
2021/04/26 03:38:00;;;;;;;4.67;3.20;;;;;;;;;;5062532;28;20211;-81
2021/04/26 03:40:29;;;;;;;6.93;3.00;;;;;;;;;;5055175;28;20235;-82
2021/04/26 03:42:58;;;;;;;5.43;3.33;;;;;;;;;;5045167;28;20199;-80
2021/04/26 03:45:40;;;;;;;5.63;3.47;;;;;;;;;;5050776;28;20227;-81
2021/04/26 03:48:26;;;;;;;7.13;3.70;;;;;;;;;;5048619;28;20200;-82
2021/04/26 03:51:05;;;;;;;4.00;2.80;;;;;;;;;;5045837;28;20230;-82
2021/04/26 03:53:55;;;;;;;6.93;3.00;;;;;;;;;;5020956;28;20576;-80
2021/04/26 03:56:36;;;;;;;4.03;2.73;;;;;;;;;;5040878;28;20209;-80
2021/04/26 03:59:04;;;;;;;5.40;3.63;;;;;;;;;;5049377;28;20223;-80
2021/04/26 04:01:34;;;;;;;3.93;3.30;;;;;;;;;;5052664;28;20220;-81
2021/04/26 04:04:02;;;;;;;4.53;3.00;;;;;;;;;;5055069;28;20200;-80
2021/04/26 04:06:50;;;;;;;8.37;3.73;;;;;;;;;;5062769;28;20204;-81
2021/04/26 04:09:44;;;;;;;4.50;3.57;;;;;;;;;;5062104;28;20216;-82
2021/04/26 04:12:38;;;;;;;4.60;3.23;;;;;;;;;;5040185;28;20208;-81
2021/04/26 04:15:10;;;;;;;3.63;3.30;;;;;;;;;;5077899;28;20200;-80
2021/04/26 04:17:39;;;;;;;5.63;3.30;;;;;;;;;;5079169;28;20188;-81
2021/04/26 04:20:08;;;;;;;4.33;3.13;;;;;;;;;;5065803;28;20220;-80
2021/04/26 04:22:39;;;;;;;4.40;2.90;;;;;;;;;;5071221;28;20192;-80
2021/04/26 04:25:09;;;;;;;6.43;3.10;;;;;;;;;;5081644;28;20291;-82
2021/04/26 04:27:37;;;;;;;5.17;3.13;;;;;;;;;;5114960;28;20175;-84
2021/04/26 04:30:11;;;;;;;6.23;3.13;;;;;;;;;;5076947;28;20225;-82
2021/04/26 04:32:57;;;;;;;7.00;3.20;;;;;;;;;;5073235;28;20258;-81
2021/04/26 04:35:45;;;;;;;5.47;3.13;;;;;;;;;;5069120;28;20202;-81
2021/04/26 04:38:23;;;;;;;5.57;3.20;;;;;;;;;;5071519;28;20199;-82
2021/04/26 04:41:09;;;;;;;4.20;2.83;;;;;;;;;;5069330;28;20215;-84
2021/04/26 04:43:38;;;;;;;6.33;3.43;;;;;;;;;;5068353;28;20227;-80
2021/04/26 04:46:06;;;;;;;5.10;3.43;;;;;;;;;;5052921;28;20283;-81
2021/04/26 04:48:35;;;;;;;6.07;3.10;;;;;;;;;;5053776;28;20204;-82
2021/04/26 04:51:05;;;;;;;5.13;3.53;;;;;;;;;;5064770;28;20497;-82
2021/04/26 04:53:34;;;;;;;6.20;3.37;;;;;;;;;;5053317;28;20207;-83
2021/04/26 04:56:02;;;;;;;7.17;3.00;;;;;;;;;;5062295;28;20209;-83
2021/04/26 04:58:39;;;;;;;5.93;3.30;;;;;;;;;;5069485;28;20452;-82
2021/04/26 05:01:08;;;;;;;5.10;3.00;;;;;;;;;;5056481;28;20228;-82
2021/04/26 05:03:54;;;;;;;4.67;3.03;;;;;;;;;;5056093;28;20223;-82
2021/04/26 05:06:41;;;;;;;5.57;3.60;;;;;;;;;;5064563;28;20288;-82
2021/04/26 05:09:29;;;;;;;4.90;3.20;;;;;;;;;;5057280;28;20231;-82
2021/04/26 05:12:15;;;;;;;6.23;3.20;;;;;;;;;;5052992;28;20212;-83
2021/04/26 05:14:52;;;;;;;5.50;3.23;;;;;;;;;;5050527;28;20211;-80
2021/04/26 05:17:21;;;;;;;5.70;3.03;;;;;;;;;;5053079;28;20235;-81
2021/04/26 05:19:49;;;;;;;5.53;3.00;;;;;;;;;;5068566;28;20236;-81
2021/04/26 05:22:17;;;;;;;5.07;3.07;;;;;;;;;;5049783;28;20214;-81
2021/04/26 05:24:53;;;;;;;5.80;2.90;;;;;;;;;;5066235;28;20231;-81
2021/04/26 05:27:20;;;;;;;6.17;3.40;;;;;;;;;;5051711;28;20209;-84
2021/04/26 05:29:48;;;;;;;4.93;3.07;;;;;;;;;;5044426;28;20257;-81
2021/04/26 05:32:15;;;;;;;6.13;3.00;;;;;;;;;;5043436;28;20216;-82
2021/04/26 05:34:45;;;;;;;5.20;2.90;;;;;;;;;;5063778;28;20215;-82
2021/04/26 05:37:12;;;;;;;6.17;3.20;;;;;;;;;;5066521;28;20692;-81
2021/04/26 05:39:40;;;;;;;5.30;3.37;;;;;;;;;;5056106;28;20259;-83
2021/04/26 05:42:09;;;;;;;4.77;3.07;;;;;;;;;;5060046;28;20217;-84
2021/04/26 05:44:37;;;;;;;7.30;3.43;;;;;;;;;;5063250;28;20222;-80
2021/04/26 05:47:23;;;;;;;6.20;3.10;;;;;;;;;;5063857;28;20213;-82
2021/04/26 05:49:50;;;;;;;7.13;3.50;;;;;;;;;;5047491;28;20227;-80
2021/04/26 05:52:18;;;;;;;7.13;3.20;;;;;;;;;;5081599;28;20225;-82
2021/04/26 05:54:45;;;;;;;7.30;3.50;;;;;;;;;;5059862;28;20207;-83
2021/04/26 05:57:14;;;;;;;9.90;3.80;;;;;;;;;;5059408;28;20561;-80
2021/04/26 05:59:41;;;;;;;5.50;2.90;;;;;;;;;;5051963;28;20238;-79
2021/04/26 06:02:09;;;;;;;7.73;3.20;;;;;;;;;;5048720;28;20211;-81
2021/04/26 06:04:37;;;;;;;3.73;2.40;;;;;;;;;;5086402;28;20206;-82
2021/04/26 06:07:04;;;;;;;6.50;3.00;;;;;;;;;;5059015;28;20210;-80
2021/04/26 06:09:32;;;;;;;4.93;2.87;;;;;;;;;;5044997;28;20219;-80
2021/04/26 06:11:59;;;;;;;6.43;3.37;;;;;;;;;;5048155;28;20209;-84
2021/04/26 06:14:28;;;;;;;8.60;3.10;;;;;;;;;;5040127;28;20207;-82
2021/04/26 06:16:55;;;;;;;3.33;2.90;;;;;;;;;;5049671;28;20242;-80
2021/04/26 06:19:22;;;;;;;5.80;3.30;;;;;;;;;;5068294;28;20239;-81
2021/04/26 06:21:50;;;;;;;5.87;3.00;;;;;;;;;;5059514;28;20261;-80
2021/04/26 06:24:17;;;;;;;6.63;3.03;;;;;;;;;;5047824;28;20206;-81
2021/04/26 06:26:45;;;;;;;9.47;3.87;;;;;;;;;;5039841;28;20206;-81
2021/04/26 06:29:12;;;;;;;7.77;3.50;;;;;;;;;;5048486;28;20224;-80
2021/04/26 06:31:40;;;;;;;7.70;3.30;;;;;;;;;;5043864;28;20414;-83
2021/04/26 06:34:08;;;;;;;5.13;3.17;;;;;;;;;;5044580;28;20211;-82
2021/04/26 06:36:36;;;;;;;6.53;3.20;;;;;;;;;;5053994;28;20836;-81
2021/04/26 06:39:04;;;;;;;7.10;3.57;;;;;;;;;;5048542;28;20589;-81
2021/04/26 06:41:32;;;;;;;6.60;3.43;;;;;;;;;;5056993;28;20219;-80
2021/04/26 06:43:59;;;;;;;5.63;3.50;;;;;;;;;;5061320;28;20230;-79
2021/04/26 06:46:26;;;;;;;6.50;3.60;;;;;;;;;;5061878;28;20205;-79
2021/04/26 06:48:55;;;;;;;5.87;3.07;;;;;;;;;;5054827;28;20222;-81
2021/04/26 06:51:22;;;;;;;6.97;3.97;;;;;;;;;;5053741;28;20200;-82
2021/04/26 06:53:50;;;;;;;8.83;3.40;;;;;;;;;;5053171;28;20207;-80
2021/04/26 06:56:18;;;;;;;8.80;3.40;;;;;;;;;;5050444;28;20222;-80
2021/04/26 06:58:46;;;;;;;7.13;3.40;;;;;;;;;;5049297;28;20204;-80
2021/04/26 07:01:13;;;;;;;8.87;3.87;;;;;;;;;;5061273;28;20227;-82
2021/04/26 07:03:46;;;;;;;6.83;4.00;;;;;;;;;;5056856;28;20207;-81
2021/04/26 07:06:15;;;;;;;5.50;3.93;;;;;;;;;;5055094;28;20657;-82
2021/04/26 07:08:43;;;;;;;11.37;3.63;;;;;;;;;;5055275;28;20208;-81
2021/04/26 07:11:10;;;;;;;5.20;3.80;;;;;;;;;;5049730;28;20600;-80
2021/04/26 07:13:38;;;;;;;5.43;3.63;;;;;;;;;;5038887;28;20231;-80
2021/04/26 07:16:06;;;;;;;5.73;3.70;;;;;;;;;;5051303;28;20211;-80
2021/04/26 07:18:33;;;;;;;6.87;4.60;;;;;;;;;;5046547;28;20223;-80
2021/04/26 07:21:01;;;;;;;6.37;3.27;;;;;;;;;;5043654;28;20413;-80
2021/04/26 07:23:29;;;;;;;4.47;4.00;;;;;;;;;;5055417;28;20205;-82
2021/04/26 07:25:57;;;;;;;6.07;3.60;;;;;;;;;;5067295;28;20208;-81
2021/04/26 07:28:24;;;;;;;7.17;3.83;;;;;;;;;;5063683;28;20214;-78
2021/04/26 07:30:52;;;;;;;9.67;4.00;;;;;;;;;;5053310;28;20224;-80
2021/04/26 07:33:19;;;;;;;8.03;4.13;;;;;;;;;;5064725;28;20531;-84
2021/04/26 07:35:47;;;;;;;5.83;4.00;;;;;;;;;;5043276;28;20207;-81
2021/04/26 07:38:14;;;;;;;6.53;3.53;;;;;;;;;;5070095;28;20207;-80
2021/04/26 07:40:43;;;;;;;10.63;4.10;;;;;;;;;;5060957;28;20238;-78
2021/04/26 07:43:10;;;;;;;5.23;3.80;;;;;;;;;;5070872;28;20223;-84
2021/04/26 07:45:38;;;;;;;7.53;3.93;;;;;;;;;;5099252;28;20216;-81
2021/04/26 07:48:05;;;;;;;6.23;3.90;;;;;;;;;;5051878;28;20210;-80
2021/04/26 07:50:33;;;;;;;4.50;3.60;;;;;;;;;;5058948;28;20230;-80
2021/04/26 07:53:01;;;;;;;7.80;4.40;;;;;;;;;;5054017;28;20211;-82
2021/04/26 07:55:28;;;;;;;7.27;4.17;;;;;;;;;;5056165;28;20207;-85
2021/04/26 07:58:00;;;;;;;11.00;4.30;;;;;;;;;;5052708;28;20200;-83
2021/04/26 08:00:48;;;;;;;7.43;4.30;;;;;;;;;;5027641;28;20243;-83
2021/04/26 08:03:35;;;;;;;6.93;4.17;;;;;;;;;;4988234;28;20675;-81
2021/04/26 08:06:23;;;;;;;6.53;4.13;;;;;;;;;;5002949;28;20210;-81
2021/04/26 08:09:11;;;;;;;6.97;4.37;;;;;;;;;;5038783;28;20242;-82
2021/04/26 08:11:58;;;;;;;5.13;4.10;;;;;;;;;;5041314;28;20291;-84
2021/04/26 08:14:47;;;;;;;4.97;4.43;;;;;;;;;;5025829;28;20425;-79
2021/04/26 08:17:35;;;;;;;7.53;4.63;;;;;;;;;;5025764;28;20204;-81
2021/04/26 08:20:23;;;;;;;10.40;4.83;;;;;;;;;;5019079;28;20231;-82
2021/04/26 08:23:11;;;;;;;8.10;4.03;;;;;;;;;;5038030;28;20242;-84
2021/04/26 08:25:59;;;;;;;4.87;3.90;;;;;;;;;;5027959;28;20207;-82
2021/04/26 08:28:47;;;;;;;7.90;4.40;;;;;;;;;;5020487;28;20219;-84
2021/04/26 08:31:35;;;;;;;7.83;4.33;;;;;;;;;;5036192;28;20203;-85
2021/04/26 08:34:23;;;;;;;9.57;4.97;;;;;;;;;;5049589;28;20203;-80
2021/04/26 08:37:11;;;;;;;8.67;4.83;;;;;;;;;;4990489;28;20216;-80
2021/04/26 08:39:59;;;;;;;6.90;4.70;;;;;;;;;;4988958;28;20227;-81
2021/04/26 08:42:47;;;;;;;6.60;5.23;;;;;;;;;;4998346;28;20490;-80
2021/04/26 08:45:35;;;;;;;8.83;4.73;;;;;;;;;;5018631;28;20207;-80
2021/04/26 08:48:24;;;;;;;8.37;5.00;;;;;;;;;;5021177;28;20203;-80
2021/04/26 08:51:12;;;;;;;7.33;5.17;;;;;;;;;;5013124;28;20246;-80
2021/04/26 08:54:00;;;;;;;8.13;5.13;;;;;;;;;;5043309;28;20209;-82
2021/04/26 08:56:48;;;;;;;7.67;5.23;;;;;;;;;;5000303;28;20222;-80
2021/04/26 08:59:36;;;;;;;7.63;5.20;;;;;;;;;;5014036;28;20230;-83
2021/04/26 09:02:24;;;;;;;6.87;4.80;;;;;;;;;;5015322;28;20196;-83
2021/04/26 09:04:55;;;;;;;9.47;4.67;;;;;;;;;;5047090;28;20215;-81
2021/04/26 09:07:23;;;;;;;8.00;5.00;;;;;;;;;;5055100;28;20207;-80
2021/04/26 09:09:52;;;;;;;6.83;4.90;;;;;;;;;;5054802;28;20242;-80
2021/04/26 09:12:30;;;;;;;8.17;4.93;;;;;;;;;;5056409;28;20192;-79
2021/04/26 09:14:59;;;;;;;5.97;4.77;;;;;;;;;;5089137;28;20191;-83
2021/04/26 09:17:34;;;;;;;6.73;4.63;;;;;;;;;;5078400;28;20199;-80
2021/04/26 09:20:23;;;;;;;5.90;4.63;;;;;;;;;;5074675;28;20223;-82
2021/04/26 09:22:53;;;;;;;7.47;5.13;;;;;;;;;;5050394;28;20203;-80
2021/04/26 09:25:32;;;;;;;6.17;5.07;;;;;;;;;;5062885;28;20184;-83
2021/04/26 09:28:02;;;;;;;6.63;5.07;;;;;;;;;;5051941;28;20281;-81
2021/04/26 09:30:52;;;;;;;6.57;4.97;;;;;;;;;;5034909;28;20219;-82
2021/04/26 09:33:29;;;;;;;6.10;5.23;;;;;;;;;;5050600;28;20040;-79
2021/04/26 09:36:00;;;;;;;6.93;4.93;;;;;;;;;;5061579;28;20577;-79
2021/04/26 09:38:29;;;;;;;7.23;5.63;;;;;;;;;;5055485;28;20195;-80
2021/04/26 09:41:22;;;;;;;7.17;4.70;;;;;;;;;;5076939;28;20714;-79
2021/04/26 09:43:53;;;;;;;6.90;5.33;;;;;;;;;;5038215;28;20207;-80
2021/04/26 09:46:22;;;;;;;6.63;4.93;;;;;;;;;;5035747;28;20211;-82
2021/04/26 09:48:49;;;;;;;8.87;6.00;;;;;;;;;;5044932;28;20211;-79
2021/04/26 09:51:21;;;;;;;10.20;5.80;;;;;;;;;;5045650;28;20365;-82
2021/04/26 09:53:52;;;;;;;7.40;5.10;;;;;;;;;;5049746;28;20207;-79
2021/04/26 09:56:22;;;;;;;7.97;5.60;;;;;;;;;;5043903;28;20211;-80
2021/04/26 09:58:51;;;;;;;8.33;5.37;;;;;;;;;;5048793;28;20219;-79
2021/04/26 10:01:20;;;;;;;8.17;5.27;;;;;;;;;;5028155;28;20219;-79
2021/04/26 10:03:48;;;;;;;8.63;6.10;;;;;;;;;;5044578;28;20208;-80
2021/04/26 10:06:20;;;;;;;5.97;4.70;;;;;;;;;;5036807;28;20216;-80
2021/04/26 10:08:49;;;;;;;6.87;5.17;;;;;;;;;;5054392;28;20204;-80
2021/04/26 10:11:17;;;;;;;6.03;5.40;;;;;;;;;;5051904;28;20196;-80
2021/04/26 10:13:46;;;;;;;9.83;5.60;;;;;;;;;;5044211;28;20211;-81
2021/04/26 10:16:20;;;;;;;9.73;5.93;;;;;;;;;;5048968;28;20203;-79
2021/04/26 10:18:49;;;;;;;9.60;5.70;;;;;;;;;;5046657;28;20211;-79
2021/04/26 10:21:33;;;;;;;9.00;6.27;;;;;;;;;;5045359;28;20227;-79
2021/04/26 10:24:20;;;;;;;9.63;5.37;;;;;;;;;;5041286;28;20195;-80
2021/04/26 10:26:51;;;;;;;10.23;5.73;;;;;;;;;;5045590;28;20218;-80
2021/04/26 10:29:26;;;;;;;8.80;6.30;;;;;;;;;;5017905;28;20235;-80
2021/04/26 10:32:09;;;;;;;7.80;6.00;;;;;;;;;;5022720;28;20188;-80
2021/04/26 10:35:08;;;;;;;11.20;5.73;;;;;;;;;;5036509;28;20237;-79
2021/04/26 10:37:38;;;;;;;8.30;6.33;;;;;;;;;;5078949;28;20227;-79
2021/04/26 10:40:13;;;;;;;8.23;5.80;;;;;;;;;;5050521;28;20736;-79
2021/04/26 10:42:43;;;;;;;9.10;5.60;;;;;;;;;;5045115;28;20425;-79
2021/04/26 10:45:31;;;;;;;7.07;6.30;;;;;;;;;;5046510;28;20222;-79
2021/04/26 10:48:11;;;;;;;9.70;6.43;;;;;;;;;;5045601;28;20214;-77
2021/04/26 10:50:42;;;;;;;7.90;6.20;;;;;;;;;;5042761;28;20228;-77
2021/04/26 10:53:12;;;;;;;8.87;6.43;;;;;;;;;;5048703;28;20204;-78
2021/04/26 10:56:00;;;;;;;9.97;6.80;;;;;;;;;;5046969;28;20214;-77
2021/04/26 10:58:31;;;;;;;8.63;6.20;;;;;;;;;;5047641;28;20223;-77
2021/04/26 11:00:59;;;;;;;9.60;6.60;;;;;;;;;;5043588;28;20705;-77
2021/04/26 11:03:37;;;;;;;8.43;7.53;;;;;;;;;;5047244;28;20211;-77
2021/04/26 11:06:21;;;;;;;7.38;6.57;;;;;;;;;;5039743;28;20207;-78
2021/04/26 11:08:53;;;;;;;8.77;7.22;;;;;;;;;;5047342;28;20204;-77
2021/04/26 11:11:54;;;;;;;7.00;6.15;;;;;;;;;;5047727;28;20589;-77
2021/04/26 11:14:26;;;;;;;6.85;6.20;;;;;;;;;;5029252;28;20681;-77
2021/04/26 11:17:03;;;;;;;9.10;7.03;;;;;;;;;;5021730;28;20219;-77
2021/04/26 11:19:32;;;;;;;9.70;6.55;;;;;;;;;;5058151;28;20597;-78
2021/04/26 11:22:01;;;;;;;12.27;6.57;;;;;;;;;;5074626;28;20230;-78
2021/04/26 11:24:50;;;;;;;8.65;6.88;;;;;;;;;;5055790;28;20210;-78
2021/04/26 11:27:22;;;;;;;9.00;6.70;;;;;;;;;;5062603;28;20215;-77
2021/04/26 11:30:12;;;;;;;7.07;6.28;;;;;;;;;;5067284;28;20230;-78
2021/04/26 11:32:56;;;;;;;8.10;6.90;;;;;;;;;;5043772;28;20203;-78
2021/04/26 11:35:23;;;;;;;9.80;6.47;;;;;;;;;;5048131;28;20195;-78
2021/04/26 11:37:51;;;;;;;10.27;7.18;;;;;;;;;;5054742;28;20421;-78
2021/04/26 11:40:21;;;;;;;11.63;7.60;;;;;;;;;;5062653;28;20234;-78
2021/04/26 11:42:49;;;;;;;9.63;7.25;;;;;;;;;;5046959;28;20224;-78
2021/04/26 11:45:20;;;;;;;9.55;6.72;;;;;;;;;;5055091;28;20203;-78
2021/04/26 11:47:49;;;;;;;9.80;6.57;;;;;;;;;;5051007;28;20207;-78
2021/04/26 11:50:17;;;;;;;9.95;7.10;;;;;;;;;;5039494;28;20215;-77
2021/04/26 11:52:44;;;;;;;12.40;7.03;;;;;;;;;;5049675;28;20207;-77
2021/04/26 11:55:16;;;;;;;8.32;7.53;;;;;;;;;;5045276;28;20668;-77
2021/04/26 11:57:47;;;;;;;8.88;7.47;;;;;;;;;;5086870;28;20474;-78
2021/04/26 12:00:16;;;;;;;8.25;7.45;;;;;;;;;;5052024;28;20235;-79
2021/04/26 12:02:46;;;;;;;8.77;7.60;;;;;;;;;;5051715;28;20258;-78
2021/04/26 12:05:16;;;;;;;9.93;7.10;;;;;;;;;;5052250;28;20200;-78
2021/04/26 12:07:45;;;;;;;7.90;6.57;;;;;;;;;;5052298;28;20204;-77
2021/04/26 12:10:14;;;;;;;9.05;7.15;;;;;;;;;;5067821;28;20219;-77
2021/04/26 12:12:43;;;;;;;8.82;7.25;;;;;;;;;;5072356;28;20199;-77
2021/04/26 12:15:13;;;;;;;7.57;6.50;;;;;;;;;;5070355;28;20199;-77
2021/04/26 12:17:41;;;;;;;8.45;7.20;;;;;;;;;;5049547;28;20241;-80
2021/04/26 12:20:14;;;;;;;9.40;7.30;;;;;;;;;;5058635;28;20223;-78
2021/04/26 12:22:43;;;;;;;12.00;7.63;;;;;;;;;;5089074;28;20685;-78
2021/04/26 12:25:12;;;;;;;8.63;7.32;;;;;;;;;;5055521;28;20401;-78
2021/04/26 12:27:39;;;;;;;10.60;7.45;;;;;;;;;;5056449;28;20204;-78
2021/04/26 12:30:20;;;;;;;8.38;7.05;;;;;;;;;;5061519;28;20219;-78
2021/04/26 12:32:50;;;;;;;10.68;8.70;;;;;;;;;;5060925;28;20195;-78
2021/04/26 12:35:23;;;;;;;8.77;7.90;;;;;;;;;;5069541;28;20193;-78
2021/04/26 12:38:00;;;;;;;9.82;7.85;;;;;;;;;;5059307;28;20202;-79
2021/04/26 12:40:28;;;;;;;8.30;7.50;;;;;;;;;;5063587;28;20226;-79
2021/04/26 12:43:06;;;;;;;11.93;9.52;;;;;;;;;;5055830;28;20224;-79
2021/04/26 12:45:38;;;;;;;9.63;8.50;;;;;;;;;;5059962;28;20219;-79
2021/04/26 12:48:07;;;;;;;9.75;7.22;;;;;;;;;;5047809;28;20203;-79
2021/04/26 12:50:36;;;;;;;7.65;6.90;;;;;;;;;;5064290;28;20698;-79
2021/04/26 12:53:17;;;;;;;8.50;6.80;;;;;;;;;;5030905;28;20211;-79
2021/04/26 12:55:47;;;;;;;10.45;7.10;;;;;;;;;;5051068;28;20211;-79
2021/04/26 12:58:17;;;;;;;9.23;7.82;;;;;;;;;;5052296;28;20542;-79
2021/04/26 13:00:49;;;;;;;8.35;7.55;;;;;;;;;;5051975;28;20231;-79
2021/04/26 13:03:33;;;;;;;11.20;7.88;;;;;;;;;;5047006;28;20235;-78
2021/04/26 13:06:04;;;;;;;8.02;7.32;;;;;;;;;;5048136;28;20662;-78
2021/04/26 13:08:32;;;;;;;8.90;6.88;;;;;;;;;;5050770;28;20196;-78
2021/04/26 13:11:01;;;;;;;8.50;6.80;;;;;;;;;;5061379;28;20220;-78
2021/04/26 13:13:29;;;;;;;8.95;7.00;;;;;;;;;;5041923;28;20203;-78
2021/04/26 13:15:57;;;;;;;8.75;6.57;;;;;;;;;;5040779;28;20199;-79
2021/04/26 13:18:26;;;;;;;8.25;7.43;;;;;;;;;;5042985;28;20704;-78
2021/04/26 13:21:06;;;;;;;8.25;6.82;;;;;;;;;;5040723;28;20223;-78
2021/04/26 13:23:36;;;;;;;7.78;6.90;;;;;;;;;;5057721;28;20215;-78
2021/04/26 13:26:22;;;;;;;8.23;6.68;;;;;;;;;;5058749;28;20207;-78
2021/04/26 13:28:50;;;;;;;8.77;7.13;;;;;;;;;;5069883;28;20215;-78
2021/04/26 13:31:20;;;;;;;7.18;6.57;;;;;;;;;;5057545;28;20226;-78
2021/04/26 13:33:48;;;;;;;8.98;8.05;;;;;;;;;;5068121;28;20200;-78
2021/04/26 13:36:16;;;;;;;9.68;7.38;;;;;;;;;;5055003;28;20207;-79
2021/04/26 13:38:43;;;;;;;7.38;6.68;;;;;;;;;;5049869;28;20396;-78
2021/04/26 13:41:11;;;;;;;8.02;7.30;;;;;;;;;;5069941;28;20227;-78
2021/04/26 13:43:38;;;;;;;8.30;6.95;;;;;;;;;;5058697;28;20237;-78
2021/04/26 13:46:06;;;;;;;9.35;6.90;;;;;;;;;;5075464;28;20669;-78
2021/04/26 13:48:35;;;;;;;7.53;6.82;;;;;;;;;;5043078;28;20199;-78
2021/04/26 13:51:02;;;;;;;7.80;7.03;;;;;;;;;;5042093;28;20238;-78
2021/04/26 13:53:30;;;;;;;7.60;6.90;;;;;;;;;;5045992;28;20187;-78
2021/04/26 13:55:57;;;;;;;7.63;6.75;;;;;;;;;;5044192;28;20215;-78
2021/04/26 13:58:24;;;;;;;8.00;6.95;;;;;;;;;;5042540;28;20215;-78
2021/04/26 14:00:52;;;;;;;7.07;6.38;;;;;;;;;;5044064;28;20227;-79
2021/04/26 14:03:20;;;;;;;7.45;6.72;;;;;;;;;;5041903;28;20308;-78
2021/04/26 14:05:48;;;;;;;9.10;6.85;;;;;;;;;;5049136;28;20194;-78
2021/04/26 14:08:16;;;;;;;7.13;6.53;;;;;;;;;;5065551;28;20234;-78
2021/04/26 14:10:43;;;;;;;6.97;6.03;;;;;;;;;;5047659;28;20227;-78
2021/04/26 14:13:10;;;;;;;6.57;5.68;;;;;;;;;;5051453;28;20551;-78
2021/04/26 14:15:38;;;;;;;6.78;6.07;;;;;;;;;;5047511;28;20195;-78
2021/04/26 14:18:06;;;;;;;6.70;6.10;;;;;;;;;;5051010;28;20587;-78
2021/04/26 14:20:34;;;;;;;7.28;6.68;;;;;;;;;;5051684;28;20253;-78
2021/04/26 14:23:07;;;;;;;6.85;6.20;;;;;;;;;;5044014;28;20330;-78
2021/04/26 14:25:34;;;;;;;7.78;6.20;;;;;;;;;;5048659;28;20690;-78
2021/04/26 14:28:03;;;;;;;7.63;6.45;;;;;;;;;;5041820;28;20226;-78
2021/04/26 14:30:31;;;;;;;6.97;6.38;;;;;;;;;;5049020;28;20219;-78
2021/04/26 14:32:59;;;;;;;7.28;6.57;;;;;;;;;;5049281;28;20555;-78
2021/04/26 14:35:26;;;;;;;9.25;6.70;;;;;;;;;;5048146;28;20219;-78
2021/04/26 14:37:56;;;;;;;6.70;6.10;;;;;;;;;;5066841;28;20200;-78
2021/04/26 14:40:25;;;;;;;7.00;6.40;;;;;;;;;;5049430;28;20677;-79
2021/04/26 14:42:53;;;;;;;10.30;6.28;;;;;;;;;;5050630;28;20217;-79
2021/04/26 14:45:22;;;;;;;7.28;6.57;;;;;;;;;;5066509;28;20180;-79
2021/04/26 14:47:50;;;;;;;6.93;6.22;;;;;;;;;;5107425;28;20203;-79
2021/04/26 14:50:18;;;;;;;6.75;5.95;;;;;;;;;;5072718;28;20212;-78
2021/04/26 14:52:45;;;;;;;7.22;6.22;;;;;;;;;;5071530;28;20198;-79
2021/04/26 14:55:14;;;;;;;7.25;6.05;;;;;;;;;;5049441;28;20222;-79
2021/04/26 14:57:42;;;;;;;7.30;6.40;;;;;;;;;;5049438;28;20196;-79
2021/04/26 15:00:11;;;;;;;6.78;6.18;;;;;;;;;;5050261;28;20238;-79
2021/04/26 15:02:38;;;;;;;6.70;5.65;;;;;;;;;;5058927;28;20693;-79
2021/04/26 15:05:08;;;;;;;9.52;6.18;;;;;;;;;;5062899;28;20188;-79
2021/04/26 15:07:39;;;;;;;6.60;6.00;;;;;;;;;;5033556;28;20208;-79
2021/04/26 15:10:07;;;;;;;7.28;6.55;;;;;;;;;;5039446;28;20234;-79
2021/04/26 15:12:35;;;;;;;8.18;6.95;;;;;;;;;;5055647;28;20199;-79
2021/04/26 15:15:04;;;;;;;7.82;7.05;;;;;;;;;;5058154;28;20580;-79